Time;durP1;ratioP1;P1;durP2;ratioP2;P2;SDS_P1;SDS_P2;PMS_P1;PMS_P2;Temp;Humidity;BMP_temperature;BMP_pressure;BME280_temperature;BME280_humidity;BME280_pressure;Samples;Min_cycle;Max_cycle;Signal;HPM_P1;HPM_P2
2023/08/18 00:01:55;;;;;;;8.70;8.50;;;18.70;99.90;;;;;;5034693;28;20227;-76
2023/08/18 00:04:22;;;;;;;8.60;8.40;;;18.60;99.90;;;;;;5034535;28;20235;-76
2023/08/18 00:06:48;;;;;;;9.07;8.77;;;18.60;99.90;;;;;;5034864;28;20235;-76
2023/08/18 00:09:15;;;;;;;8.68;8.48;;;18.60;99.90;;;;;;5035226;28;20329;-76
2023/08/18 00:11:44;;;;;;;8.43;8.23;;;18.70;99.90;;;;;;5034748;28;20227;-76
2023/08/18 00:14:11;;;;;;;8.50;8.30;;;18.70;99.90;;;;;;5035176;28;20259;-77
2023/08/18 00:16:37;;;;;;;8.40;8.20;;;18.70;99.90;;;;;;5034742;28;20327;-77
2023/08/18 00:19:05;;;;;;;8.40;8.20;;;18.70;99.90;;;;;;5035147;28;20235;-77
2023/08/18 00:21:31;;;;;;;8.30;8.10;;;18.70;99.90;;;;;;5035331;28;20232;-76
2023/08/18 00:23:59;;;;;;;8.40;8.20;;;18.80;99.90;;;;;;5034323;28;20231;-77
2023/08/18 00:26:26;;;;;;;8.20;8.00;;;18.80;99.90;;;;;;5034725;28;20239;-76
2023/08/18 00:28:54;;;;;;;8.50;8.30;;;18.90;99.90;;;;;;5037517;28;20235;-76
2023/08/18 00:31:21;;;;;;;8.38;8.18;;;18.90;99.90;;;;;;5037179;28;20329;-76
2023/08/18 00:33:48;;;;;;;8.00;7.80;;;18.90;99.90;;;;;;5034858;28;20323;-76
2023/08/18 00:36:15;;;;;;;8.60;8.40;;;18.90;99.90;;;;;;5034673;28;20238;-76
2023/08/18 00:38:42;;;;;;;8.45;8.25;;;18.90;99.90;;;;;;5035502;28;20238;-76
2023/08/18 00:41:08;;;;;;;8.27;8.07;;;19.00;99.90;;;;;;5035028;28;20235;-76
2023/08/18 00:43:35;;;;;;;8.40;8.20;;;18.90;99.90;;;;;;5034528;28;20242;-76
2023/08/18 00:46:04;;;;;;;8.50;8.30;;;19.00;99.90;;;;;;5034458;28;20232;-76
2023/08/18 00:48:31;;;;;;;8.50;8.30;;;19.00;99.90;;;;;;5035450;28;20239;-78
2023/08/18 00:51:00;;;;;;;8.40;8.20;;;19.00;99.90;;;;;;5035951;28;20235;-76
2023/08/18 00:53:27;;;;;;;8.57;8.38;;;19.10;99.90;;;;;;5035153;28;20242;-77
2023/08/18 00:55:54;;;;;;;8.55;8.35;;;19.10;99.90;;;;;;5035231;28;20331;-76
2023/08/18 00:58:21;;;;;;;8.43;8.23;;;19.00;99.90;;;;;;5032360;28;20241;-76
2023/08/18 01:00:50;;;;;;;8.50;8.30;;;19.10;99.90;;;;;;5034589;28;20235;-76
2023/08/18 01:03:19;;;;;;;8.70;8.50;;;19.00;99.90;;;;;;5033975;28;20228;-76
2023/08/18 01:05:46;;;;;;;8.40;8.20;;;19.10;99.90;;;;;;5034621;28;20234;-76
2023/08/18 01:08:13;;;;;;;8.52;8.32;;;19.10;99.90;;;;;;5034626;28;20239;-76
2023/08/18 01:10:56;;;;;;;8.52;8.32;;;19.10;99.90;;;;;;5034593;28;20242;-76
2023/08/18 01:13:37;;;;;;;8.55;8.35;;;19.10;99.90;;;;;;5034551;28;20235;-78
2023/08/18 01:16:09;;;;;;;8.60;8.40;;;19.20;99.90;;;;;;5031505;28;20334;-76
2023/08/18 01:18:40;;;;;;;8.50;8.30;;;19.10;99.90;;;;;;5038295;28;20264;-76
2023/08/18 01:21:12;;;;;;;8.45;8.25;;;19.10;99.90;;;;;;5037738;28;20235;-76
2023/08/18 01:23:42;;;;;;;8.30;8.10;;;19.10;99.90;;;;;;5038024;28;21174;-76
2023/08/18 01:26:09;;;;;;;8.50;8.30;;;19.10;99.90;;;;;;5040054;28;20266;-76
2023/08/18 01:28:36;;;;;;;8.30;8.10;;;19.10;99.90;;;;;;5040047;28;20235;-77
2023/08/18 01:31:08;;;;;;;8.30;8.10;;;19.10;99.90;;;;;;5038018;28;20235;-76
2023/08/18 01:33:39;;;;;;;8.27;8.07;;;19.10;99.90;;;;;;5037758;28;20450;-76
2023/08/18 01:36:22;;;;;;;8.35;8.15;;;19.10;99.90;;;;;;5037398;28;20290;-76
2023/08/18 01:38:53;;;;;;;8.40;8.20;;;19.10;99.90;;;;;;5037279;28;20311;-76
2023/08/18 01:41:23;;;;;;;8.20;8.00;;;19.10;99.90;;;;;;5037470;28;20242;-76
2023/08/18 01:43:51;;;;;;;8.30;8.10;;;19.10;99.90;;;;;;5037594;28;20259;-76
2023/08/18 01:46:18;;;;;;;8.32;8.13;;;19.10;99.90;;;;;;5037607;28;20239;-76
2023/08/18 01:48:45;;;;;;;8.20;8.00;;;19.10;99.90;;;;;;5043211;28;20231;-76
2023/08/18 01:51:12;;;;;;;8.45;8.25;;;19.10;99.90;;;;;;5047493;28;20235;-77
2023/08/18 01:53:39;;;;;;;8.40;8.20;;;19.10;99.90;;;;;;5033921;28;20236;-77
2023/08/18 01:56:07;;;;;;;8.32;8.13;;;19.10;99.90;;;;;;5018788;28;20236;-76
2023/08/18 01:58:34;;;;;;;8.38;8.18;;;19.10;99.90;;;;;;5017847;28;20239;-76
2023/08/18 02:01:01;;;;;;;8.60;8.40;;;19.10;99.90;;;;;;5037069;28;20266;-76
2023/08/18 02:03:29;;;;;;;8.57;8.38;;;19.00;99.90;;;;;;5036999;28;20231;-78
2023/08/18 02:05:57;;;;;;;8.68;8.48;;;19.00;99.90;;;;;;5036839;28;20238;-76
2023/08/18 02:08:24;;;;;;;8.50;8.30;;;18.90;99.90;;;;;;5036764;28;20247;-76
2023/08/18 02:10:51;;;;;;;8.40;8.20;;;18.90;99.90;;;;;;5036821;28;20337;-76
2023/08/18 02:13:19;;;;;;;8.50;8.30;;;18.90;99.90;;;;;;5036464;28;20234;-77
2023/08/18 02:15:46;;;;;;;8.60;8.40;;;18.80;99.90;;;;;;5036377;28;20338;-76
2023/08/18 02:18:13;;;;;;;8.63;8.43;;;18.70;99.90;;;;;;5036663;28;20238;-76
2023/08/18 02:20:40;;;;;;;8.85;8.57;;;18.70;99.90;;;;;;5037036;28;20237;-76
2023/08/18 02:23:07;;;;;;;8.90;8.60;;;18.60;99.90;;;;;;5039506;28;20224;-78
2023/08/18 02:25:35;;;;;;;8.88;8.60;;;18.50;99.90;;;;;;5041262;28;20245;-76
2023/08/18 02:28:02;;;;;;;8.90;8.60;;;18.50;99.90;;;;;;5041057;28;20239;-76
2023/08/18 02:30:30;;;;;;;8.90;8.60;;;18.40;99.90;;;;;;5038940;28;20273;-76
2023/08/18 02:32:57;;;;;;;8.80;8.50;;;18.30;99.90;;;;;;5037113;28;20238;-76
2023/08/18 02:35:24;;;;;;;8.90;8.60;;;18.20;99.90;;;;;;5036692;28;20232;-76
2023/08/18 02:37:51;;;;;;;8.88;8.57;;;18.20;99.90;;;;;;5037213;28;20242;-76
2023/08/18 02:40:18;;;;;;;8.60;8.40;;;18.10;99.90;;;;;;5037169;28;20238;-76
2023/08/18 02:42:45;;;;;;;8.55;8.35;;;18.10;99.90;;;;;;5036164;28;20231;-76
2023/08/18 02:45:12;;;;;;;8.70;8.50;;;18.10;99.90;;;;;;5038181;28;20224;-75
2023/08/18 02:47:40;;;;;;;8.90;8.60;;;18.10;99.90;;;;;;5046639;28;20327;-75
2023/08/18 02:50:08;;;;;;;8.65;8.45;;;18.10;99.90;;;;;;5046794;28;20337;-76
2023/08/18 02:52:36;;;;;;;8.80;8.55;;;18.10;99.90;;;;;;5047347;28;20327;-75
2023/08/18 02:55:04;;;;;;;8.90;8.60;;;18.10;99.90;;;;;;5043807;28;20238;-76
2023/08/18 02:57:31;;;;;;;8.75;8.52;;;18.00;99.90;;;;;;5036499;28;20243;-77
2023/08/18 02:59:58;;;;;;;8.52;8.32;;;18.10;99.90;;;;;;5036436;28;20819;-76
2023/08/18 03:02:25;;;;;;;8.60;8.40;;;18.10;99.90;;;;;;5035961;28;20261;-76
2023/08/18 03:04:53;;;;;;;8.50;8.30;;;18.10;99.90;;;;;;5036281;28;20306;-76
2023/08/18 03:07:20;;;;;;;8.50;8.30;;;18.10;99.90;;;;;;5036218;28;20227;-76
2023/08/18 03:09:47;;;;;;;8.30;8.10;;;18.00;99.90;;;;;;5035817;28;20231;-76
2023/08/18 03:12:15;;;;;;;8.50;8.30;;;17.90;99.90;;;;;;5035544;28;20238;-76
2023/08/18 03:14:42;;;;;;;8.75;8.52;;;17.90;99.90;;;;;;5035522;28;20227;-76
2023/08/18 03:17:09;;;;;;;8.57;8.38;;;17.90;99.90;;;;;;5035630;28;20239;-76
2023/08/18 03:19:36;;;;;;;8.55;8.35;;;17.90;99.90;;;;;;5039098;28;20232;-76
2023/08/18 03:22:05;;;;;;;8.55;8.35;;;17.80;99.90;;;;;;5035032;28;20234;-76
2023/08/18 03:24:32;;;;;;;8.85;8.57;;;17.80;99.90;;;;;;5035403;28;20318;-76
2023/08/18 03:26:59;;;;;;;8.90;8.60;;;17.70;99.90;;;;;;5035571;28;20239;-76
2023/08/18 03:29:26;;;;;;;8.60;8.40;;;17.60;99.90;;;;;;5035598;28;20724;-77
2023/08/18 03:31:53;;;;;;;8.52;8.32;;;17.70;99.90;;;;;;5035610;28;20219;-75
2023/08/18 03:34:20;;;;;;;8.68;8.48;;;17.60;99.90;;;;;;5035780;28;20238;-76
2023/08/18 03:36:47;;;;;;;8.10;7.90;;;17.60;99.90;;;;;;5034220;28;20287;-76
2023/08/18 03:39:15;;;;;;;8.27;8.07;;;17.60;99.90;;;;;;5035422;28;20239;-77
2023/08/18 03:41:42;;;;;;;8.27;8.07;;;17.60;99.90;;;;;;5035329;28;20238;-76
2023/08/18 03:44:09;;;;;;;8.60;8.40;;;17.50;99.90;;;;;;5035512;28;20236;-76
2023/08/18 03:46:36;;;;;;;8.85;8.55;;;17.50;99.90;;;;;;5034998;28;20240;-76
2023/08/18 03:49:05;;;;;;;9.00;8.70;;;17.50;99.90;;;;;;5035160;28;20231;-76
2023/08/18 03:51:32;;;;;;;9.15;8.85;;;17.50;99.90;;;;;;5034911;28;20228;-78
2023/08/18 03:53:59;;;;;;;9.15;8.85;;;17.50;99.90;;;;;;5035486;28;20234;-76
2023/08/18 03:56:28;;;;;;;9.20;8.90;;;17.40;99.90;;;;;;5034709;28;20239;-76
2023/08/18 03:58:55;;;;;;;9.00;8.70;;;17.40;99.90;;;;;;5035013;28;20310;-76
2023/08/18 04:01:22;;;;;;;8.57;8.38;;;17.40;99.90;;;;;;5034900;28;20243;-76
2023/08/18 04:03:50;;;;;;;8.60;8.40;;;17.40;99.90;;;;;;5037686;28;20238;-76
2023/08/18 04:06:17;;;;;;;8.70;8.50;;;17.40;99.90;;;;;;5035640;28;20231;-76
2023/08/18 04:08:45;;;;;;;8.98;8.68;;;17.50;99.90;;;;;;5035744;28;20241;-77
2023/08/18 04:11:12;;;;;;;9.13;8.82;;;17.50;99.90;;;;;;5035102;28;20219;-76
2023/08/18 04:13:40;;;;;;;8.95;8.65;;;17.50;99.90;;;;;;5035858;28;20232;-76
2023/08/18 04:16:08;;;;;;;8.48;8.27;;;17.60;99.90;;;;;;5039936;28;20241;-76
2023/08/18 04:18:35;;;;;;;9.27;8.98;;;17.60;99.90;;;;;;5035513;28;20240;-76
2023/08/18 04:21:02;;;;;;;9.00;8.70;;;17.60;99.90;;;;;;5034773;28;20228;-75
2023/08/18 04:23:29;;;;;;;8.73;8.52;;;17.60;99.90;;;;;;5034837;28;20294;-75
2023/08/18 04:25:56;;;;;;;9.02;8.73;;;17.70;99.90;;;;;;5035129;28;20238;-76
2023/08/18 04:28:23;;;;;;;8.95;8.65;;;17.70;99.90;;;;;;5034844;28;20235;-76
2023/08/18 04:30:52;;;;;;;9.10;8.80;;;17.70;99.90;;;;;;5029357;28;20232;-76
2023/08/18 04:33:18;;;;;;;8.55;8.35;;;17.70;99.90;;;;;;5029462;28;20266;-76
2023/08/18 04:35:45;;;;;;;8.60;8.40;;;17.70;99.90;;;;;;5034926;28;20240;-76
2023/08/18 04:38:13;;;;;;;8.60;8.40;;;17.80;99.90;;;;;;5045629;28;20318;-75
2023/08/18 04:40:40;;;;;;;8.80;8.60;;;17.80;99.90;;;;;;5047356;28;20238;-76
2023/08/18 04:43:07;;;;;;;9.00;8.70;;;17.80;99.90;;;;;;5038306;28;20238;-76
2023/08/18 04:45:35;;;;;;;8.68;8.48;;;17.80;99.90;;;;;;5035405;28;20228;-78
2023/08/18 04:48:04;;;;;;;8.55;8.35;;;17.90;99.90;;;;;;5036500;28;20231;-76
2023/08/18 04:50:31;;;;;;;8.75;8.55;;;17.90;99.90;;;;;;5038578;28;20246;-76
2023/08/18 04:52:58;;;;;;;8.27;8.07;;;18.00;99.90;;;;;;5037626;28;20237;-76
2023/08/18 04:55:26;;;;;;;8.48;8.27;;;18.10;99.90;;;;;;5038080;28;20227;-76
2023/08/18 04:57:53;;;;;;;8.52;8.32;;;18.10;99.90;;;;;;5037793;28;20239;-77
2023/08/18 05:00:19;;;;;;;8.57;8.38;;;18.10;99.90;;;;;;5038327;28;20242;-76
2023/08/18 05:02:47;;;;;;;8.65;8.45;;;18.10;99.90;;;;;;5037658;28;20234;-76
2023/08/18 05:05:16;;;;;;;8.68;8.48;;;18.10;99.90;;;;;;5038562;28;20696;-76
2023/08/18 05:07:43;;;;;;;8.52;8.32;;;18.10;99.90;;;;;;5043703;28;20338;-76
2023/08/18 05:10:10;;;;;;;8.63;8.43;;;18.00;99.90;;;;;;5056851;28;20215;-75
2023/08/18 05:12:37;;;;;;;8.60;8.40;;;18.00;99.90;;;;;;5048400;28;20253;-76
2023/08/18 05:15:04;;;;;;;8.77;8.57;;;17.90;99.90;;;;;;5043099;28;20238;-76
2023/08/18 05:17:31;;;;;;;8.57;8.38;;;17.90;99.90;;;;;;5041392;28;20238;-76
2023/08/18 05:19:58;;;;;;;9.00;8.70;;;17.90;99.90;;;;;;5039623;28;20227;-76
2023/08/18 05:22:26;;;;;;;8.40;8.20;;;17.90;99.90;;;;;;5039021;28;20350;-76
2023/08/18 05:24:53;;;;;;;8.80;8.60;;;17.90;99.90;;;;;;5038348;28;20232;-76
2023/08/18 05:27:20;;;;;;;8.50;8.30;;;18.00;99.90;;;;;;5038813;28;20231;-76
2023/08/18 05:29:51;;;;;;;8.32;8.13;;;18.10;99.90;;;;;;5038602;28;20245;-76
2023/08/18 05:32:18;;;;;;;8.30;8.10;;;18.10;99.90;;;;;;5037879;28;20625;-76
2023/08/18 05:34:45;;;;;;;8.48;8.27;;;18.20;99.90;;;;;;5037473;28;20231;-77
2023/08/18 05:37:12;;;;;;;8.60;8.40;;;18.20;99.90;;;;;;5038394;28;20239;-76
2023/08/18 05:39:40;;;;;;;8.27;8.07;;;18.20;99.90;;;;;;5037903;28;20231;-76
2023/08/18 05:42:07;;;;;;;8.32;8.13;;;18.20;99.90;;;;;;5039010;28;20234;-76
2023/08/18 05:44:34;;;;;;;8.30;8.10;;;18.30;99.90;;;;;;5039235;28;20232;-76
2023/08/18 05:47:01;;;;;;;8.43;8.23;;;18.30;99.90;;;;;;5039013;28;20235;-76
2023/08/18 05:49:28;;;;;;;8.40;8.20;;;18.30;99.90;;;;;;5038758;28;20231;-76
2023/08/18 05:51:55;;;;;;;8.00;7.80;;;18.30;99.90;;;;;;5039619;28;20230;-76
2023/08/18 05:54:22;;;;;;;7.90;7.70;;;18.30;99.90;;;;;;5038383;28;20227;-76
2023/08/18 05:56:50;;;;;;;8.02;7.82;;;18.30;99.90;;;;;;5038929;28;20250;-76
2023/08/18 05:59:17;;;;;;;8.20;8.00;;;18.30;99.90;;;;;;5038224;28;20348;-76
2023/08/18 06:01:44;;;;;;;8.40;8.20;;;18.40;99.90;;;;;;5038802;28;20314;-76
2023/08/18 06:04:11;;;;;;;8.65;8.45;;;18.40;99.90;;;;;;5039343;28;20298;-76
2023/08/18 06:06:39;;;;;;;8.55;8.35;;;18.50;99.90;;;;;;5046316;28;20231;-76
2023/08/18 06:09:06;;;;;;;8.50;8.30;;;18.50;99.90;;;;;;5039028;28;20235;-76
2023/08/18 06:11:33;;;;;;;8.60;8.40;;;18.60;99.90;;;;;;5038453;28;20219;-75
2023/08/18 06:14:01;;;;;;;8.55;8.35;;;18.60;99.90;;;;;;5038636;28;20235;-76
2023/08/18 06:16:28;;;;;;;8.48;8.27;;;18.60;99.90;;;;;;5037868;28;20231;-76
2023/08/18 06:18:55;;;;;;;8.23;8.02;;;18.60;99.90;;;;;;5037033;28;20231;-76
2023/08/18 06:21:22;;;;;;;8.52;8.32;;;18.60;99.90;;;;;;5036331;28;20259;-76
2023/08/18 06:23:49;;;;;;;8.63;8.43;;;18.70;99.90;;;;;;5036818;28;20255;-77
2023/08/18 06:26:16;;;;;;;8.70;8.50;;;18.80;99.90;;;;;;5037091;28;21029;-76
2023/08/18 06:28:43;;;;;;;8.57;8.38;;;18.90;99.90;;;;;;5037187;28;20238;-76
2023/08/18 06:31:11;;;;;;;8.30;8.10;;;19.10;99.90;;;;;;5036530;28;20253;-76
2023/08/18 06:33:38;;;;;;;8.32;8.13;;;19.20;99.90;;;;;;5036949;28;20231;-77
2023/08/18 06:36:06;;;;;;;8.93;8.70;;;19.30;99.90;;;;;;5037292;28;20338;-76
2023/08/18 06:38:33;;;;;;;8.95;8.70;;;19.40;99.90;;;;;;5037099;28;20220;-75
2023/08/18 06:41:00;;;;;;;9.13;8.82;;;19.50;99.90;;;;;;5028303;28;20227;-76
2023/08/18 06:43:27;;;;;;;9.30;9.00;;;19.50;99.90;;;;;;5036425;28;20231;-76
2023/08/18 06:45:54;;;;;;;9.50;9.20;;;19.60;99.90;;;;;;5036766;28;20242;-76
2023/08/18 06:48:22;;;;;;;9.05;8.75;;;19.60;99.90;;;;;;5036451;28;20246;-76
2023/08/18 06:50:49;;;;;;;9.20;8.90;;;19.80;99.90;;;;;;5038998;28;20231;-76
2023/08/18 06:53:16;;;;;;;9.32;9.02;;;19.90;99.90;;;;;;5037903;28;20235;-75
2023/08/18 06:55:43;;;;;;;10.00;9.70;;;20.00;99.90;;;;;;5036344;28;20227;-75
2023/08/18 06:58:12;;;;;;;10.05;9.75;;;19.90;99.90;;;;;;5035109;28;20239;-76
2023/08/18 07:00:39;;;;;;;9.90;9.60;;;20.00;99.90;;;;;;5035813;28;20243;-75
2023/08/18 07:03:06;;;;;;;10.10;9.80;;;20.00;99.90;;;;;;5037510;28;20235;-75
2023/08/18 07:05:34;;;;;;;10.40;10.10;;;20.10;99.90;;;;;;5036598;28;20232;-77
2023/08/18 07:08:02;;;;;;;10.02;9.73;;;20.20;99.90;;;;;;5035534;28;20243;-77
2023/08/18 07:10:29;;;;;;;10.13;9.82;;;20.30;99.90;;;;;;5029271;28;20748;-77
2023/08/18 07:12:56;;;;;;;9.90;9.60;;;20.40;99.90;;;;;;5034507;28;20231;-76
2023/08/18 07:15:23;;;;;;;9.63;9.32;;;20.60;99.90;;;;;;5034921;28;20229;-77
2023/08/18 07:17:50;;;;;;;10.00;9.70;;;20.70;99.90;;;;;;5034712;28;20245;-76
2023/08/18 07:20:17;;;;;;;10.05;9.75;;;20.80;99.90;;;;;;5034540;28;20230;-77
2023/08/18 07:22:45;;;;;;;10.40;10.10;;;20.90;99.90;;;;;;5034765;28;20236;-77
2023/08/18 07:25:12;;;;;;;10.07;9.77;;;21.00;99.90;;;;;;5034871;28;20243;-76
2023/08/18 07:27:39;;;;;;;10.90;10.60;;;21.10;99.90;;;;;;5034360;28;20250;-76
2023/08/18 07:30:08;;;;;;;10.73;10.43;;;21.20;99.90;;;;;;5035554;28;20235;-77
2023/08/18 07:32:36;;;;;;;10.70;10.40;;;21.30;99.90;;;;;;5036280;28;20231;-76
2023/08/18 07:35:08;;;;;;;10.77;10.48;;;21.40;99.90;;;;;;5015164;28;20279;-77
2023/08/18 07:37:35;;;;;;;10.98;10.68;;;21.50;99.90;;;;;;5014577;28;20298;-77
2023/08/18 07:40:06;;;;;;;10.93;10.63;;;21.60;99.90;;;;;;5015295;28;20239;-77
2023/08/18 07:42:33;;;;;;;10.80;10.50;;;21.70;99.90;;;;;;5023815;28;20230;-77
2023/08/18 07:45:00;;;;;;;10.90;10.60;;;21.90;99.90;;;;;;5034811;28;20238;-77
2023/08/18 07:47:27;;;;;;;10.90;10.60;;;22.00;99.90;;;;;;5034886;28;20235;-76
2023/08/18 07:49:54;;;;;;;10.80;10.50;;;22.10;99.90;;;;;;5034556;28;20232;-77
2023/08/18 07:52:21;;;;;;;10.80;10.50;;;22.30;99.90;;;;;;5034606;28;20235;-76
2023/08/18 07:54:48;;;;;;;10.90;10.60;;;22.40;99.90;;;;;;5034839;28;20235;-79
2023/08/18 07:57:16;;;;;;;11.00;10.70;;;22.50;99.90;;;;;;5033997;28;20330;-77
2023/08/18 07:59:44;;;;;;;10.90;10.60;;;22.70;99.90;;;;;;5035972;28;20231;-78
2023/08/18 08:02:11;;;;;;;10.98;10.68;;;22.90;99.90;;;;;;5039324;28;20329;-78
2023/08/18 08:04:38;;;;;;;11.15;10.85;;;23.00;99.90;;;;;;5040071;28;20238;-77
2023/08/18 08:07:05;;;;;;;11.20;10.90;;;23.20;99.90;;;;;;5038761;28;20231;-77
2023/08/18 08:09:32;;;;;;;11.10;10.80;;;23.30;99.90;;;;;;5035737;28;20309;-77
2023/08/18 08:11:59;;;;;;;11.48;11.07;;;23.40;99.90;;;;;;5034907;28;20322;-77
2023/08/18 08:14:27;;;;;;;10.68;10.38;;;23.40;99.90;;;;;;5035013;28;20231;-77
2023/08/18 08:16:54;;;;;;;10.73;10.43;;;23.40;99.90;;;;;;5033451;28;20374;-76
2023/08/18 08:19:21;;;;;;;10.70;10.40;;;23.40;99.90;;;;;;5034557;28;20291;-75
2023/08/18 08:21:48;;;;;;;10.65;10.35;;;23.50;99.90;;;;;;5033968;28;20333;-74
2023/08/18 08:24:15;;;;;;;10.60;10.30;;;23.60;99.90;;;;;;5033854;28;20239;-75
2023/08/18 08:26:42;;;;;;;10.60;10.30;;;23.70;99.90;;;;;;5035031;28;20242;-75
2023/08/18 08:29:09;;;;;;;11.60;11.20;;;23.80;99.90;;;;;;5034695;28;20216;-75
2023/08/18 08:31:38;;;;;;;11.60;11.20;;;23.90;99.90;;;;;;5035338;28;20232;-77
2023/08/18 08:34:05;;;;;;;11.40;11.00;;;24.00;99.90;;;;;;5036944;28;20233;-76
2023/08/18 08:36:33;;;;;;;11.45;11.05;;;24.10;99.90;;;;;;5035965;28;20235;-77
2023/08/18 08:39:01;;;;;;;11.10;10.80;;;24.40;99.90;;;;;;5036840;28;20222;-77
2023/08/18 08:41:28;;;;;;;11.20;10.90;;;24.50;99.90;;;;;;5035463;28;20245;-77
2023/08/18 08:43:55;;;;;;;11.18;10.88;;;24.70;99.90;;;;;;5036328;28;20223;-77
2023/08/18 08:46:23;;;;;;;11.57;11.18;;;24.80;99.90;;;;;;5035677;28;20239;-77
2023/08/18 08:48:54;;;;;;;11.60;11.20;;;24.90;99.90;;;;;;5041123;28;20231;-78
2023/08/18 08:51:26;;;;;;;10.98;10.68;;;25.10;99.90;;;;;;5042558;28;20239;-77
2023/08/18 08:54:01;;;;;;;10.90;10.60;;;25.20;99.90;;;;;;5038002;28;20255;-78
2023/08/18 08:56:33;;;;;;;11.00;10.70;;;25.40;99.90;;;;;;5037658;28;20707;-77
2023/08/18 08:59:06;;;;;;;11.10;10.80;;;25.50;99.90;;;;;;5043358;28;20226;-79
2023/08/18 09:01:33;;;;;;;11.00;10.70;;;25.70;99.90;;;;;;5037852;28;20266;-77
2023/08/18 09:04:02;;;;;;;11.02;10.73;;;25.90;99.90;;;;;;5036198;28;20238;-77
2023/08/18 09:06:32;;;;;;;10.90;10.60;;;26.40;99.90;;;;;;5036108;28;20740;-78
2023/08/18 09:09:00;;;;;;;11.00;10.70;;;26.70;99.90;;;;;;5036991;28;20223;-78
2023/08/18 09:11:41;;;;;;;11.00;10.70;;;27.00;99.90;;;;;;5036842;28;20231;-78
2023/08/18 09:14:09;;;;;;;11.05;10.75;;;27.10;99.90;;;;;;5038321;28;20238;-79
2023/08/18 09:16:36;;;;;;;11.10;10.80;;;27.10;99.90;;;;;;5047191;28;20240;-79
2023/08/18 09:19:05;;;;;;;11.20;10.90;;;27.00;99.90;;;;;;5048197;28;20251;-77
2023/08/18 09:21:33;;;;;;;11.50;11.10;;;27.00;99.90;;;;;;5051008;28;20355;-78
2023/08/18 09:24:01;;;;;;;10.88;10.57;;;27.20;99.90;;;;;;5050013;28;20300;-76
2023/08/18 09:26:27;;;;;;;11.02;10.73;;;27.40;99.90;;;;;;5044318;28;20319;-75
2023/08/18 09:28:54;;;;;;;11.02;10.73;;;27.60;99.90;;;;;;5042210;28;20251;-75
2023/08/18 09:31:21;;;;;;;10.95;10.65;;;27.80;99.90;;;;;;5033991;28;20323;-76
2023/08/18 09:33:48;;;;;;;10.80;10.50;;;27.60;99.90;;;;;;5034990;28;20237;-76
2023/08/18 09:36:18;;;;;;;11.18;10.88;;;27.60;99.90;;;;;;5037414;28;20242;-76
2023/08/18 09:38:47;;;;;;;11.00;10.70;;;27.80;99.90;;;;;;5038439;28;20242;-79
2023/08/18 09:41:15;;;;;;;11.27;10.98;;;28.20;99.90;;;;;;5038553;28;20334;-77
2023/08/18 09:43:42;;;;;;;11.32;11.02;;;28.70;99.90;;;;;;5038763;28;20693;-78
2023/08/18 09:46:15;;;;;;;11.30;11.00;;;29.20;99.90;;;;;;5040445;28;20247;-78
2023/08/18 09:48:47;;;;;;;11.13;10.82;;;29.10;99.90;;;;;;5042204;28;20231;-78
2023/08/18 09:51:20;;;;;;;11.05;10.75;;;29.20;99.90;;;;;;5040536;28;20234;-78
2023/08/18 09:53:58;;;;;;;11.20;10.90;;;29.70;99.90;;;;;;5040342;28;20236;-77
2023/08/18 09:56:28;;;;;;;11.15;10.85;;;29.90;99.90;;;;;;5044761;28;20237;-77
2023/08/18 09:59:09;;;;;;;11.10;10.80;;;30.00;99.90;;;;;;5040691;28;20232;-78
2023/08/18 10:01:38;;;;;;;10.95;10.65;;;29.70;99.90;;;;;;5038068;28;20246;-77
2023/08/18 10:04:06;;;;;;;11.05;10.75;;;29.30;99.90;;;;;;5039569;28;20232;-78
2023/08/18 10:06:39;;;;;;;10.60;10.30;;;29.20;99.90;;;;;;5039642;28;20811;-77
2023/08/18 10:09:07;;;;;;;10.50;10.20;;;29.20;99.90;;;;;;5037089;28;20286;-77
2023/08/18 10:11:35;;;;;;;10.45;10.15;;;29.10;99.90;;;;;;5037523;28;20231;-76
2023/08/18 10:14:03;;;;;;;10.40;10.10;;;29.20;99.90;;;;;;5037710;28;20294;-76
2023/08/18 10:16:32;;;;;;;10.68;10.38;;;29.20;99.90;;;;;;5036492;28;20235;-76
2023/08/18 10:18:59;;;;;;;10.48;10.18;;;29.20;99.90;;;;;;5036883;28;20326;-78
2023/08/18 10:21:28;;;;;;;10.85;10.55;;;29.40;99.90;;;;;;5047408;28;20255;-77
2023/08/18 10:23:56;;;;;;;10.90;10.60;;;29.40;99.90;;;;;;5050903;28;20239;-77
2023/08/18 10:26:24;;;;;;;10.88;10.57;;;29.30;99.90;;;;;;5042252;28;20239;-80
2023/08/18 10:28:53;;;;;;;11.13;10.82;;;29.40;99.90;;;;;;5040276;28;20278;-79
2023/08/18 10:31:21;;;;;;;11.32;11.02;;;29.40;99.90;;;;;;5039665;28;20231;-79
2023/08/18 10:33:50;;;;;;;11.13;10.82;;;29.50;99.90;;;;;;5039955;28;20246;-78
2023/08/18 10:36:24;;;;;;;11.30;11.00;;;29.70;99.90;;;;;;5037722;28;20227;-78
2023/08/18 10:38:52;;;;;;;11.60;11.20;;;29.90;99.90;;;;;;5036518;28;20231;-78
2023/08/18 10:41:27;;;;;;;11.43;11.05;;;30.10;99.90;;;;;;5038679;28;20306;-78
2023/08/18 10:43:56;;;;;;;11.50;11.20;;;30.40;99.90;;;;;;5054647;28;20226;-79
2023/08/18 10:46:34;;;;;;;11.30;11.00;;;30.80;99.90;;;;;;5037294;28;20236;-79
2023/08/18 10:49:01;;;;;;;11.00;10.70;;;30.70;99.90;;;;;;5039990;28;20235;-78
2023/08/18 10:51:28;;;;;;;10.77;10.48;;;30.50;99.90;;;;;;5040616;28;20258;-80
2023/08/18 10:53:55;;;;;;;10.77;10.48;;;30.30;99.90;;;;;;5050786;28;21044;-78
2023/08/18 10:56:22;;;;;;;10.90;10.60;;;30.40;99.90;;;;;;5052057;28;20238;-78
2023/08/18 10:58:52;;;;;;;11.13;10.82;;;30.50;99.90;;;;;;5043920;28;20231;-79
2023/08/18 11:01:22;;;;;;;10.90;10.60;;;30.60;99.90;;;;;;5042108;28;20235;-80
2023/08/18 11:03:49;;;;;;;10.98;10.68;;;30.70;99.90;;;;;;5040123;28;20228;-80
2023/08/18 11:06:16;;;;;;;10.68;10.38;;;30.70;99.90;;;;;;5039269;28;20292;-79
2023/08/18 11:08:44;;;;;;;10.70;10.40;;;30.60;99.90;;;;;;5039320;28;20234;-79
2023/08/18 11:11:11;;;;;;;10.80;10.50;;;30.60;99.90;;;;;;5039668;28;20227;-78
2023/08/18 11:13:38;;;;;;;11.07;10.77;;;30.90;99.90;;;;;;5039885;28;20270;-78
2023/08/18 11:16:07;;;;;;;11.20;10.90;;;31.30;99.90;;;;;;5039453;28;20246;-78
2023/08/18 11:18:35;;;;;;;11.05;10.75;;;31.90;99.90;;;;;;5039815;28;20235;-80
2023/08/18 11:21:03;;;;;;;11.00;10.70;;;32.20;99.90;;;;;;5040930;28;20322;-80
2023/08/18 11:23:30;;;;;;;10.70;10.40;;;32.50;99.90;;;;;;5041455;28;20235;-81
2023/08/18 11:25:58;;;;;;;10.95;10.65;;;32.50;99.90;;;;;;5042643;28;20231;-80
2023/08/18 11:28:25;;;;;;;10.88;10.57;;;32.50;99.90;;;;;;5041314;28;20690;-81
2023/08/18 11:30:55;;;;;;;10.77;10.48;;;32.50;99.90;;;;;;5041518;28;20327;-80
2023/08/18 11:33:25;;;;;;;10.68;10.38;;;32.40;99.90;;;;;;5041714;28;20241;-80
2023/08/18 11:35:52;;;;;;;10.70;10.40;;;32.30;99.90;;;;;;5041528;28;20232;-81
2023/08/18 11:38:19;;;;;;;10.90;10.60;;;32.20;99.90;;;;;;5041747;28;20245;-79
2023/08/18 11:40:48;;;;;;;10.75;10.45;;;32.30;99.90;;;;;;5040663;28;20227;-80
2023/08/18 11:43:17;;;;;;;10.75;10.45;;;32.50;99.90;;;;;;5039429;28;20262;-81
2023/08/18 11:45:44;;;;;;;10.90;10.60;;;32.70;99.90;;;;;;5035097;28;20243;-80
2023/08/18 11:48:13;;;;;;;10.82;10.52;;;33.00;99.90;;;;;;5040820;28;20289;-81
2023/08/18 11:50:43;;;;;;;10.80;10.50;;;33.20;99.90;;;;;;5040401;28;20326;-81
2023/08/18 11:53:11;;;;;;;11.27;10.98;;;33.30;99.90;;;;;;5039807;28;20297;-79
2023/08/18 11:55:41;;;;;;;11.10;10.80;;;33.10;99.90;;;;;;5045389;28;20240;-79
2023/08/18 11:58:11;;;;;;;10.85;10.55;;;32.90;99.90;;;;;;5037183;28;20220;-80
2023/08/18 12:00:40;;;;;;;10.90;10.60;;;33.10;99.90;;;;;;5038157;28;20289;-79
2023/08/18 12:03:19;;;;;;;10.60;10.30;;;33.00;99.90;;;;;;5038776;28;20319;-79
2023/08/18 12:05:47;;;;;;;10.63;10.32;;;33.20;99.90;;;;;;5039378;28;20255;-80
2023/08/18 12:08:14;;;;;;;10.80;10.50;;;33.30;99.90;;;;;;5040200;28;20231;-81
2023/08/18 12:10:42;;;;;;;10.75;10.45;;;33.40;99.90;;;;;;5041504;28;20310;-81
2023/08/18 12:13:09;;;;;;;10.80;10.50;;;33.70;99.90;;;;;;5040618;28;20239;-80
2023/08/18 12:15:36;;;;;;;10.38;10.07;;;33.70;99.90;;;;;;5040562;28;20241;-80
2023/08/18 12:18:05;;;;;;;10.80;10.50;;;33.50;99.90;;;;;;5041943;28;20302;-80
2023/08/18 12:20:32;;;;;;;10.80;10.50;;;33.60;99.90;;;;;;5040029;28;20239;-80
2023/08/18 12:23:02;;;;;;;10.50;10.20;;;33.50;99.90;;;;;;5038254;28;20242;-79
2023/08/18 12:25:29;;;;;;;10.60;10.30;;;33.70;99.90;;;;;;5037849;28;20335;-79
2023/08/18 12:27:56;;;;;;;10.65;10.35;;;33.90;99.90;;;;;;5037114;28;20235;-78
2023/08/18 12:30:24;;;;;;;10.65;10.35;;;33.90;99.90;;;;;;5036308;28;20247;-77
2023/08/18 12:32:51;;;;;;;10.73;10.43;;;33.70;99.90;;;;;;5037322;28;20322;-77
2023/08/18 12:35:20;;;;;;;10.65;10.35;;;33.90;99.90;;;;;;5037087;28;20231;-78
2023/08/18 12:37:47;;;;;;;10.70;10.40;;;34.30;99.90;;;;;;5037089;28;20224;-78
2023/08/18 12:40:15;;;;;;;10.75;10.45;;;34.30;99.90;;;;;;5040971;28;20231;-77
2023/08/18 12:42:42;;;;;;;10.90;10.60;;;33.90;99.90;;;;;;5050495;28;20235;-79